createdAt,value
2022-10-04T00:02:19.486Z,3.08
2022-10-04T00:04:49.153Z,3.88
2022-10-04T00:07:22.771Z,3.28
2022-10-04T00:09:52.441Z,2.85
2022-10-04T00:12:19.203Z,3.20
2022-10-04T00:14:46.253Z,3.58
2022-10-04T00:17:14.853Z,3.65
2022-10-04T00:19:43.802Z,3.40
2022-10-04T00:22:12.764Z,3.83
2022-10-04T00:24:59.481Z,3.85
2022-10-04T00:27:27.309Z,3.72
2022-10-04T00:30:03.510Z,3.72
2022-10-04T00:32:39.666Z,3.95
2022-10-04T00:35:25.007Z,3.45
2022-10-04T00:37:59.291Z,3.80
2022-10-04T00:40:34.121Z,3.45
2022-10-04T00:43:08.911Z,3.83
2022-10-04T00:45:39.396Z,4.22
2022-10-04T00:48:09.356Z,3.80
2022-10-04T00:50:38.907Z,3.80
2022-10-04T00:53:20.337Z,4.13
2022-10-04T00:55:50.050Z,3.88
2022-10-04T00:58:23.076Z,3.97
2022-10-04T01:00:50.208Z,4.05
2022-10-04T01:03:25.262Z,3.50
2022-10-04T01:05:55.956Z,3.67
2022-10-04T01:11:15.870Z,4.15
2022-10-04T01:13:50.229Z,4.18
2022-10-04T01:16:22.782Z,3.70
2022-10-04T01:18:49.751Z,4.68
2022-10-04T01:21:22.359Z,3.60
2022-10-04T01:23:58.340Z,4.20
2022-10-04T01:26:32.561Z,4.43
2022-10-04T01:29:05.778Z,4.60
2022-10-04T01:31:34.238Z,4.30
2022-10-04T01:34:01.849Z,4.53
2022-10-04T01:36:29.024Z,4.47
2022-10-04T01:38:56.195Z,4.43
2022-10-04T01:41:44.643Z,4.88
2022-10-04T01:44:18.103Z,4.70
2022-10-04T01:46:46.011Z,4.53
2022-10-04T01:49:16.296Z,4.57
2022-10-04T01:51:45.720Z,4.43
2022-10-04T01:54:14.797Z,4.60
2022-10-04T01:56:48.208Z,4.78
2022-10-04T01:59:17.185Z,4.30
2022-10-04T02:01:51.113Z,4.80
2022-10-04T02:04:27.686Z,4.47
2022-10-04T02:06:56.679Z,4.63
2022-10-04T02:09:25.716Z,4.18
2022-10-04T02:11:54.219Z,5.00
2022-10-04T02:14:23.232Z,4.88
2022-10-04T02:16:54.083Z,5.03
2022-10-04T02:19:23.404Z,5.10
2022-10-04T02:21:50.530Z,4.90
2022-10-04T02:24:17.838Z,5.07
2022-10-04T02:26:49.444Z,4.93
2022-10-04T02:29:16.911Z,5.18
2022-10-04T02:32:02.989Z,4.93
2022-10-04T02:34:30.665Z,4.68
2022-10-04T02:36:57.608Z,4.90
2022-10-04T02:39:30.551Z,5.38
2022-10-04T02:42:17.649Z,4.70
2022-10-04T02:44:47.249Z,4.88
2022-10-04T02:47:19.119Z,5.35
2022-10-04T02:49:45.977Z,5.88
2022-10-04T02:52:16.622Z,5.00
2022-10-04T02:54:46.878Z,6.28
2022-10-04T02:57:19.408Z,5.53
2022-10-04T02:59:46.838Z,5.00
2022-10-04T03:02:30.121Z,5.68
2022-10-04T03:05:03.972Z,5.38
2022-10-04T03:07:32.700Z,4.95
2022-10-04T03:10:00.331Z,5.30
2022-10-04T03:12:27.264Z,5.55
2022-10-04T03:14:54.927Z,5.63
2022-10-04T03:17:22.091Z,6.22
2022-10-04T03:19:50.162Z,6.38
2022-10-04T03:22:17.212Z,6.97
2022-10-04T03:24:50.280Z,6.20
2022-10-04T03:27:21.859Z,6.13
2022-10-04T03:29:50.581Z,6.15
2022-10-04T03:32:19.044Z,5.82
2022-10-04T03:34:53.629Z,6.25
2022-10-04T03:37:21.299Z,5.70
2022-10-04T03:39:49.547Z,5.60
2022-10-04T03:42:20.910Z,6.63
2022-10-04T03:44:48.853Z,5.93
2022-10-04T03:47:21.940Z,5.68
2022-10-04T03:49:51.035Z,5.90
2022-10-04T03:52:21.345Z,5.45
2022-10-04T03:54:49.647Z,6.13
2022-10-04T03:57:17.057Z,5.70
2022-10-04T03:59:44.171Z,6.07
2022-10-04T04:02:18.544Z,5.30
2022-10-04T04:04:50.683Z,6.28
2022-10-04T04:07:21.753Z,6.25
2022-10-04T04:09:55.129Z,6.00
2022-10-04T04:12:31.620Z,5.63
2022-10-04T04:14:59.668Z,6.25
2022-10-04T04:17:28.850Z,5.85
2022-10-04T04:19:59.793Z,5.87
2022-10-04T04:22:31.992Z,6.38
2022-10-04T04:25:01.231Z,5.70
2022-10-04T04:27:30.960Z,6.95
2022-10-04T04:29:59.439Z,5.87
2022-10-04T04:32:32.359Z,5.78
2022-10-04T04:35:00.857Z,5.25
2022-10-04T04:37:27.818Z,5.22
2022-10-04T04:39:58.009Z,5.38
2022-10-04T04:42:31.855Z,5.25
2022-10-04T04:45:34.443Z,5.45
2022-10-04T04:48:03.652Z,5.00
2022-10-04T04:50:33.589Z,5.47
2022-10-04T04:53:14.531Z,5.57
2022-10-04T04:56:02.345Z,4.93
2022-10-04T04:58:35.758Z,4.85
2022-10-04T05:01:02.714Z,4.80
2022-10-04T05:03:34.183Z,8.75
2022-10-04T05:06:05.160Z,5.38
2022-10-04T05:08:37.174Z,5.03
2022-10-04T05:11:10.093Z,5.53
2022-10-04T05:13:57.178Z,6.22
2022-10-04T05:16:27.026Z,5.55
2022-10-04T05:18:58.540Z,5.45
2022-10-04T05:21:32.230Z,6.07
2022-10-04T05:24:07.887Z,5.70
2022-10-04T05:26:34.717Z,5.55
2022-10-04T05:29:06.730Z,5.72
2022-10-04T05:31:36.300Z,5.78
2022-10-04T05:34:06.919Z,5.88
2022-10-04T05:36:33.782Z,5.18
2022-10-04T05:39:06.294Z,5.55
2022-10-04T05:41:46.912Z,5.10
2022-10-04T05:46:44.011Z,5.57
2022-10-04T05:49:16.688Z,6.45
2022-10-04T05:52:03.115Z,5.72
2022-10-04T05:54:32.957Z,5.80
2022-10-04T05:57:08.437Z,6.10
2022-10-04T05:59:55.476Z,5.38
2022-10-04T06:02:32.101Z,5.53
2022-10-04T06:05:25.593Z,6.18
2022-10-04T06:08:01.314Z,6.07
2022-10-04T06:10:31.345Z,6.45
2022-10-04T06:13:10.486Z,5.57
2022-10-04T06:15:46.598Z,6.03
2022-10-04T06:18:25.787Z,5.55
2022-10-04T06:21:13.002Z,5.38
2022-10-04T06:23:47.345Z,5.00
2022-10-04T06:26:18.945Z,5.47
2022-10-04T06:28:47.465Z,5.22
2022-10-04T06:31:17.391Z,5.38
2022-10-04T06:33:47.487Z,5.57
2022-10-04T06:36:33.636Z,5.10
2022-10-04T06:39:09.451Z,4.63
2022-10-04T06:41:42.463Z,5.07
2022-10-04T06:44:09.659Z,4.88
2022-10-04T06:46:39.289Z,4.88
2022-10-04T06:49:07.508Z,5.70
2022-10-04T06:51:41.015Z,4.75
2022-10-04T06:54:21.475Z,4.90
2022-10-04T06:56:56.363Z,5.45
2022-10-04T06:59:26.284Z,4.43
2022-10-04T07:02:00.530Z,4.67
2022-10-04T07:05:08.108Z,4.63
2022-10-04T07:07:37.563Z,5.05
2022-10-04T07:10:13.357Z,4.43
2022-10-04T07:12:41.828Z,4.40
2022-10-04T07:15:16.188Z,4.70
2022-10-04T07:17:43.543Z,4.70
2022-10-04T07:20:22.919Z,4.80
2022-10-04T07:23:03.213Z,4.97
2022-10-04T07:25:42.356Z,4.20
2022-10-04T07:28:27.914Z,4.72
2022-10-04T07:30:57.923Z,4.60
2022-10-04T07:33:27.993Z,4.10
2022-10-04T07:36:00.958Z,4.50
2022-10-04T07:38:29.792Z,4.63
2022-10-04T07:41:07.565Z,4.65
2022-10-04T07:43:39.143Z,4.45
2022-10-04T07:46:32.515Z,4.63
2022-10-04T07:49:00.057Z,4.38
2022-10-04T07:51:29.675Z,4.80
2022-10-04T07:53:56.519Z,4.55
2022-10-04T07:56:28.865Z,3.80
2022-10-04T07:58:58.472Z,4.53
2022-10-04T08:01:37.481Z,4.22
2022-10-04T08:04:11.027Z,4.15
2022-10-04T08:06:44.542Z,3.45
2022-10-04T08:09:24.699Z,3.65
2022-10-04T08:12:10.091Z,3.47
2022-10-04T08:14:39.978Z,3.55
2022-10-04T08:17:06.739Z,4.37
2022-10-04T08:19:39.370Z,4.15
2022-10-04T08:22:16.107Z,3.92
2022-10-04T08:24:43.662Z,3.00
2022-10-04T08:27:10.621Z,3.75
2022-10-04T08:29:43.759Z,3.25
2022-10-04T08:32:25.882Z,4.15
2022-10-04T08:35:02.050Z,3.70
2022-10-04T08:37:49.763Z,3.50
2022-10-04T08:40:35.881Z,3.35
2022-10-04T08:43:02.779Z,3.80
2022-10-04T08:45:38.961Z,3.70
2022-10-04T08:48:18.459Z,3.78
2022-10-04T08:51:03.893Z,15.15
2022-10-04T08:53:50.769Z,3.47
2022-10-04T08:56:20.670Z,3.03
2022-10-04T08:59:06.877Z,2.80
2022-10-04T09:01:52.739Z,2.95
2022-10-04T09:04:34.883Z,2.97
2022-10-04T09:07:12.435Z,3.17
2022-10-04T09:09:58.082Z,3.13
2022-10-04T09:12:51.181Z,3.15
2022-10-04T09:15:21.989Z,3.35
2022-10-04T09:18:07.584Z,3.15
2022-10-04T09:20:43.749Z,3.45
2022-10-04T09:23:23.211Z,4.10
2022-10-04T09:25:53.315Z,3.17
2022-10-04T09:28:30.951Z,3.75
2022-10-04T09:31:06.696Z,3.35
2022-10-04T09:33:33.774Z,3.20
2022-10-04T09:36:07.729Z,3.17
2022-10-04T09:39:06.133Z,3.20
2022-10-04T09:41:42.275Z,4.25
2022-10-04T09:44:46.298Z,3.40
2022-10-04T09:47:37.653Z,3.78
2022-10-04T09:50:26.493Z,4.35
2022-10-04T09:52:54.380Z,3.30
2022-10-04T09:55:24.014Z,3.28
2022-10-04T09:58:10.584Z,2.95
2022-10-04T10:00:47.901Z,3.03
2022-10-04T10:03:23.817Z,3.13
2022-10-04T10:06:13.553Z,2.88
2022-10-04T10:08:43.383Z,3.10
2022-10-04T10:11:47.970Z,3.30
2022-10-04T10:14:27.218Z,3.20
2022-10-04T10:17:07.054Z,2.80
2022-10-04T10:19:43.094Z,2.80
2022-10-04T10:22:31.319Z,2.88
2022-10-04T10:25:01.470Z,2.85
2022-10-04T10:27:48.976Z,3.03
2022-10-04T10:30:28.386Z,2.72
2022-10-04T10:33:13.910Z,2.63
2022-10-04T10:35:46.954Z,4.55
2022-10-04T10:38:25.892Z,2.88
2022-10-04T10:41:08.240Z,2.88
2022-10-04T10:43:52.853Z,3.63
2022-10-04T10:46:25.910Z,3.00
2022-10-04T10:49:07.895Z,3.33
2022-10-04T10:51:43.844Z,2.20
2022-10-04T10:54:16.791Z,2.28
2022-10-04T10:56:47.973Z,1.75
2022-10-04T10:59:33.843Z,1.80
2022-10-04T11:02:19.518Z,1.52
2022-10-04T11:04:55.560Z,1.65
2022-10-04T11:07:37.511Z,2.03
2022-10-04T11:10:07.673Z,1.55
2022-10-04T11:12:53.098Z,1.65
2022-10-04T11:15:38.662Z,1.25
2022-10-04T11:18:17.883Z,1.30
2022-10-04T11:20:45.124Z,1.15
2022-10-04T11:23:14.824Z,1.65
2022-10-04T11:26:00.207Z,1.50
2022-10-04T11:28:47.693Z,1.52
2022-10-04T11:31:14.821Z,1.55
2022-10-04T11:33:41.789Z,1.40
2022-10-04T11:36:20.944Z,1.60
2022-10-04T11:39:10.805Z,1.27
2022-10-04T11:41:56.669Z,1.52
2022-10-04T11:44:31.076Z,1.50
2022-10-04T11:47:16.167Z,1.88
2022-10-04T11:49:43.285Z,1.48
2022-10-04T11:52:30.318Z,1.67
2022-10-04T11:55:18.031Z,1.35
2022-10-04T11:57:52.871Z,1.30
2022-10-04T12:00:24.062Z,1.58
2022-10-04T12:02:51.030Z,1.65
2022-10-04T12:05:20.731Z,1.77
2022-10-04T12:07:54.768Z,1.80
2022-10-04T12:10:25.086Z,1.77
2022-10-04T12:12:54.894Z,1.58
2022-10-04T12:15:22.580Z,1.63
2022-10-04T12:17:58.541Z,2.00
2022-10-04T12:20:29.351Z,1.50
2022-10-04T12:23:11.632Z,1.55
2022-10-04T12:26:07.797Z,1.60
2022-10-04T12:28:38.025Z,1.67
2022-10-04T12:31:16.936Z,1.80
2022-10-04T12:33:48.087Z,1.52
2022-10-04T12:36:35.413Z,1.98
2022-10-04T12:39:15.513Z,1.90
2022-10-04T12:41:59.807Z,1.88
2022-10-04T12:44:27.245Z,1.95
2022-10-04T12:46:54.247Z,2.58
2022-10-04T12:49:32.625Z,2.05
2022-10-04T12:51:59.708Z,2.30
2022-10-04T12:54:36.226Z,2.05
2022-10-04T12:57:04.341Z,2.08
2022-10-04T12:59:40.293Z,2.00
2022-10-04T13:02:16.411Z,1.70
2022-10-04T13:05:02.321Z,2.20
2022-10-04T13:07:31.817Z,1.83
2022-10-04T13:10:24.510Z,1.40
2022-10-04T13:12:55.293Z,1.50
2022-10-04T13:15:26.156Z,1.52
2022-10-04T13:17:53.386Z,1.63
2022-10-04T13:20:32.656Z,1.80
2022-10-04T13:23:22.888Z,1.67
2022-10-04T13:26:04.789Z,1.65
2022-10-04T13:28:40.637Z,1.65
2022-10-04T13:31:17.056Z,2.47
2022-10-04T13:33:44.167Z,1.92
2022-10-04T13:36:20.476Z,1.40
2022-10-04T13:38:50.141Z,1.77
2022-10-04T13:41:32.253Z,1.85
2022-10-04T13:44:18.472Z,1.77
2022-10-04T13:46:48.974Z,1.65
2022-10-04T13:49:19.223Z,1.63
2022-10-04T13:52:25.178Z,2.15
2022-10-04T13:55:19.682Z,1.90
2022-10-04T13:57:50.683Z,1.83
2022-10-04T14:00:35.141Z,1.70
2022-10-04T14:03:07.420Z,1.58
2022-10-04T14:05:40.790Z,1.80
2022-10-04T14:08:15.804Z,1.58
2022-10-04T14:10:43.281Z,2.03
2022-10-04T14:13:24.926Z,1.80
2022-10-04T14:16:04.809Z,2.00
2022-10-04T14:18:38.174Z,1.83
2022-10-04T14:21:16.682Z,2.22
2022-10-04T14:24:05.215Z,1.70
2022-10-04T14:26:32.835Z,2.10
2022-10-04T14:29:12.142Z,1.98
2022-10-04T14:31:50.877Z,1.63
2022-10-04T14:34:25.590Z,1.70
2022-10-04T14:37:11.692Z,1.63
2022-10-04T14:39:47.157Z,1.73
2022-10-04T14:42:32.563Z,2.10
2022-10-04T14:45:04.445Z,1.67
2022-10-04T14:47:50.898Z,1.83
2022-10-04T14:50:47.737Z,2.40
2022-10-04T14:53:24.124Z,2.30
2022-10-04T14:55:51.220Z,2.13
2022-10-04T14:58:27.112Z,1.67
2022-10-04T15:00:56.211Z,2.00
2022-10-04T15:03:30.886Z,2.08
2022-10-04T15:06:04.356Z,1.88
2022-10-04T15:08:31.930Z,1.98
2022-10-04T15:11:09.960Z,1.83
2022-10-04T15:13:47.908Z,2.03
2022-10-04T15:16:18.447Z,1.75
2022-10-04T15:19:09.194Z,1.95
2022-10-04T15:21:39.307Z,1.60
2022-10-04T15:24:18.553Z,1.58
2022-10-04T15:26:50.396Z,1.75
2022-10-04T15:29:26.820Z,1.88
2022-10-04T15:31:53.987Z,1.95
2022-10-04T15:34:33.789Z,1.50
2022-10-04T15:37:02.384Z,1.95
2022-10-04T15:39:40.481Z,1.52
2022-10-04T15:42:16.768Z,1.90
2022-10-04T15:44:44.206Z,1.88
2022-10-04T15:47:31.157Z,2.90
2022-10-04T15:50:07.756Z,2.10
2022-10-04T15:52:53.254Z,1.90
2022-10-04T15:55:21.699Z,1.90
2022-10-04T15:57:49.240Z,2.00
2022-10-04T16:00:38.417Z,2.40
2022-10-04T16:03:24.434Z,2.58
2022-10-04T16:05:58.285Z,2.58
2022-10-04T16:08:26.446Z,2.83
2022-10-04T16:10:58.558Z,2.90
2022-10-04T16:13:44.160Z,2.90
2022-10-04T16:16:17.896Z,3.20
2022-10-04T16:18:45.243Z,2.40
2022-10-04T16:21:18.506Z,2.63
2022-10-04T16:23:46.001Z,2.70
2022-10-04T16:26:34.270Z,2.20
2022-10-04T16:29:13.380Z,2.20
2022-10-04T16:31:52.971Z,2.20
2022-10-04T16:34:23.392Z,2.30
2022-10-04T16:36:52.735Z,2.55
2022-10-04T16:39:56.946Z,2.75
2022-10-04T16:42:27.368Z,2.65
2022-10-04T16:45:01.278Z,3.13
2022-10-04T16:47:37.959Z,3.42
2022-10-04T16:50:09.328Z,2.88
2022-10-04T16:53:15.036Z,3.22
2022-10-04T16:56:01.619Z,3.30
2022-10-04T16:58:29.951Z,3.58
2022-10-04T17:01:15.815Z,3.30
2022-10-04T17:03:50.653Z,3.10
2022-10-04T17:06:25.905Z,3.03
2022-10-04T17:09:02.984Z,2.90
2022-10-04T17:11:42.801Z,2.75
2022-10-04T17:14:38.929Z,2.30
2022-10-04T17:17:17.204Z,3.13
2022-10-04T17:19:52.743Z,2.65
2022-10-04T17:22:20.941Z,2.70
2022-10-04T17:25:13.044Z,2.70
2022-10-04T17:27:54.067Z,3.00
2022-10-04T17:30:23.002Z,3.08
2022-10-04T17:33:07.879Z,2.88
2022-10-04T17:35:41.908Z,2.30
2022-10-04T17:38:12.258Z,2.28
2022-10-04T17:40:42.266Z,2.30
2022-10-04T17:43:28.523Z,2.22
2022-10-04T17:45:56.890Z,2.40
2022-10-04T17:49:12.084Z,2.22
2022-10-04T17:51:57.458Z,2.17
2022-10-04T17:54:44.935Z,2.05
2022-10-04T17:57:22.864Z,2.20
2022-10-04T17:59:53.825Z,2.13
2022-10-04T18:02:43.152Z,1.98
2022-10-04T18:05:21.803Z,2.13
2022-10-04T18:07:53.881Z,2.50
2022-10-04T18:10:30.818Z,2.17
2022-10-04T18:13:15.416Z,2.85
2022-10-04T18:15:50.345Z,2.50
2022-10-04T18:18:20.030Z,2.38
2022-10-04T18:20:47.165Z,2.97
2022-10-04T18:23:14.539Z,2.47
2022-10-04T18:25:42.276Z,2.42
2022-10-04T18:28:09.564Z,2.35
2022-10-04T18:30:49.203Z,2.63
2022-10-04T18:33:18.904Z,2.83
2022-10-04T18:36:06.145Z,2.35
2022-10-04T18:38:36.014Z,2.55
2022-10-04T18:41:19.217Z,2.80
2022-10-04T18:44:05.398Z,1.80
2022-10-04T18:46:40.104Z,1.98
2022-10-04T18:49:42.856Z,2.10
2022-10-04T18:52:10.323Z,2.08
2022-10-04T18:54:45.554Z,1.70
2022-10-04T18:57:30.869Z,2.10
2022-10-04T19:00:19.611Z,1.98
2022-10-04T19:02:49.859Z,1.90
2022-10-04T19:05:37.044Z,2.17
2022-10-04T19:08:20.046Z,1.85
2022-10-04T19:10:58.218Z,1.70
2022-10-04T19:13:30.813Z,1.88
2022-10-04T19:16:16.776Z,1.90
2022-10-04T19:18:50.624Z,1.80
2022-10-04T19:21:17.625Z,2.15
2022-10-04T19:24:05.899Z,2.20
2022-10-04T19:26:37.417Z,2.03
2022-10-04T19:29:07.525Z,2.28
2022-10-04T19:31:39.094Z,2.00
2022-10-04T19:34:18.393Z,1.98
2022-10-04T19:36:57.097Z,2.00
2022-10-04T19:39:31.108Z,2.20
2022-10-04T19:42:06.648Z,2.00
2022-10-04T19:44:44.829Z,1.85
2022-10-04T19:47:23.852Z,2.20
2022-10-04T19:49:56.958Z,2.35
2022-10-04T19:52:37.979Z,2.97
2022-10-04T19:55:22.158Z,2.70
2022-10-04T19:57:58.778Z,2.78
2022-10-04T20:00:25.799Z,2.78
2022-10-04T20:02:52.863Z,2.60
2022-10-04T20:05:30.248Z,2.40
2022-10-04T20:08:04.984Z,2.22
2022-10-04T20:10:36.367Z,2.08
2022-10-04T20:13:13.731Z,1.80
2022-10-04T20:15:40.689Z,2.03
2022-10-04T20:18:26.677Z,1.83
2022-10-04T20:20:53.553Z,2.03
2022-10-04T20:23:41.550Z,1.92
2022-10-04T20:26:10.461Z,1.95
2022-10-04T20:28:40.420Z,1.85
2022-10-04T20:31:11.413Z,1.80
2022-10-04T20:33:44.117Z,1.90
2022-10-04T20:36:20.373Z,1.88
2022-10-04T20:38:56.164Z,2.00
2022-10-04T20:41:28.907Z,2.20
2022-10-04T20:43:57.477Z,2.10
2022-10-04T20:46:27.752Z,2.40
2022-10-04T20:48:55.254Z,2.10
2022-10-04T20:51:24.225Z,2.42
2022-10-04T20:53:51.253Z,2.42
2022-10-04T20:56:41.364Z,2.85
2022-10-04T20:59:14.034Z,2.50
2022-10-04T21:01:44.431Z,2.67
2022-10-04T21:04:17.466Z,2.90
2022-10-04T21:06:54.213Z,2.33
2022-10-04T21:09:21.225Z,2.70
2022-10-04T21:11:50.550Z,2.63
2022-10-04T21:14:27.643Z,2.60
2022-10-04T21:16:59.915Z,2.17
2022-10-04T21:19:32.414Z,2.90
2022-10-04T21:22:00.299Z,2.67
2022-10-04T21:24:37.618Z,2.55
2022-10-04T21:27:05.614Z,2.58
2022-10-04T21:29:32.466Z,2.65
2022-10-04T21:31:59.492Z,2.70
2022-10-04T21:34:51.486Z,2.50
2022-10-04T21:37:13.560Z,2.83
2022-10-04T21:39:40.510Z,2.90
2022-10-04T21:42:07.522Z,2.30
2022-10-04T21:44:34.434Z,2.85
2022-10-04T21:47:01.285Z,2.95
2022-10-04T21:49:28.220Z,3.13
2022-10-04T21:51:55.051Z,2.80
2022-10-04T21:54:21.947Z,3.03
2022-10-04T21:56:49.096Z,2.50
2022-10-04T21:59:16.220Z,2.42
2022-10-04T22:01:43.107Z,2.78
2022-10-04T22:04:09.977Z,2.58
2022-10-04T22:06:36.853Z,2.58
2022-10-04T22:09:03.786Z,2.65
2022-10-04T22:11:30.823Z,2.63
2022-10-04T22:13:57.700Z,2.92
2022-10-04T22:16:24.546Z,2.72
2022-10-04T22:18:51.424Z,2.83
2022-10-04T22:21:18.397Z,2.88
2022-10-04T22:23:45.235Z,2.65
2022-10-04T22:26:16.788Z,2.80
2022-10-04T22:28:50.568Z,2.45
2022-10-04T22:31:18.940Z,2.40
2022-10-04T22:33:46.823Z,2.55
2022-10-04T22:36:32.577Z,2.85
2022-10-04T22:39:04.809Z,2.80
2022-10-04T22:41:33.826Z,2.70
2022-10-04T22:44:07.520Z,2.55
2022-10-04T22:46:39.202Z,2.60
2022-10-04T22:49:13.146Z,2.67
2022-10-04T22:51:40.968Z,2.88
2022-10-04T22:54:12.263Z,2.70
2022-10-04T22:56:39.364Z,2.42
2022-10-04T22:59:08.467Z,2.70
2022-10-04T23:01:35.305Z,3.03
2022-10-04T23:04:02.140Z,2.40
2022-10-04T23:06:28.990Z,3.38
2022-10-04T23:08:55.883Z,2.60
2022-10-04T23:11:22.847Z,2.60
2022-10-04T23:13:49.753Z,2.33
2022-10-04T23:16:18.691Z,2.78
2022-10-04T23:18:45.642Z,2.50
2022-10-04T23:21:19.723Z,2.40
2022-10-04T23:23:47.374Z,2.50
2022-10-04T23:26:19.014Z,2.72
2022-10-04T23:28:45.986Z,2.70
2022-10-04T23:31:15.994Z,2.53
2022-10-04T23:33:42.908Z,2.58
2022-10-04T23:36:11.278Z,2.97
2022-10-04T23:38:38.278Z,2.95
2022-10-04T23:41:11.999Z,3.13
2022-10-04T23:43:39.199Z,3.13
2022-10-04T23:46:11.695Z,3.30
2022-10-04T23:48:38.621Z,3.13
2022-10-04T23:51:05.489Z,3.20
2022-10-04T23:53:33.263Z,3.40
2022-10-04T23:56:04.138Z,3.10
